Time;durP1;ratioP1;P1;durP2;ratioP2;P2;SDS_P1;SDS_P2;PMS_P1;PMS_P2;Temp;Humidity;BMP_temperature;BMP_pressure;BME280_temperature;BME280_humidity;BME280_pressure;Samples;Min_cycle;Max_cycle;Signal;HPM_P1;HPM_P2
2023/04/30 00:00:28;;;;;;;;;;;;;;;;;;5027451;28;1888;-61
2023/04/30 00:02:54;;;;;;;;;;;;;;;;;;5023571;28;4475;-60
2023/04/30 00:05:19;;;;;;;;;;;;;;;;;;5027175;28;4908;-60
2023/04/30 00:07:44;;;;;;;;;;;;;;;;;;5026935;28;5040;-60
2023/04/30 00:10:10;;;;;;;;;;;;;;;;;;5015164;28;4537;-59
2023/04/30 00:12:35;;;;;;;;;;;;;;;;;;5027431;28;1578;-61
2023/04/30 00:15:00;;;;;;;;;;;;;;;;;;5026888;28;4958;-59
2023/04/30 00:17:26;;;;;;;;;;;;;;;;;;5026743;28;4992;-61
2023/04/30 00:19:51;;;;;;;;;;;;;;;;;;5025887;28;4538;-59
2023/04/30 00:22:16;;;;;;;;;;;;;;;;;;5026321;28;4649;-58
2023/04/30 00:24:41;;;;;;;;;;;;;;;;;;5026534;28;4664;-59
2023/04/30 00:27:07;;;;;;;;;;;;;;;;;;5027568;28;1086;-59
2023/04/30 00:29:32;;;;;;;;;;;;;;;;;;5028343;28;4497;-61
2023/04/30 00:31:57;;;;;;;;;;;;;;;;;;5029690;28;4887;-60
2023/04/30 00:34:23;;;;;;;;;;;;;;;;;;5029522;28;4477;-61
2023/04/30 00:36:48;;;;;;;;;;;;;;;;;;5030301;28;5149;-59
2023/04/30 00:39:14;;;;;;;;;;;;;;;;;;5022525;28;1825;-59
2023/04/30 00:41:39;;;;;;;;;;;;;;;;;;5028757;28;4457;-60
2023/04/30 00:44:05;;;;;;;;;;;;;;;;;;5017472;28;4644;-60
2023/04/30 00:46:30;;;;;;;;;;;;;;;;;;5030122;28;5050;-60
2023/04/30 00:48:55;;;;;;;;;;;;;;;;;;5029874;28;4537;-59
2023/04/30 00:51:21;;;;;;;;;;;;;;;;;;5031292;28;1375;-59
2023/04/30 00:53:46;;;;;;;;;;;;;;;;;;5030070;28;4647;-59
2023/04/30 00:56:11;;;;;;;;;;;;;;;;;;5029744;28;4973;-60
2023/04/30 00:58:36;;;;;;;;;;;;;;;;;;5029261;28;4827;-59
2023/04/30 01:01:02;;;;;;;;;;;;;;;;;;5029738;28;5567;-61
2023/04/30 01:03:27;;;;;;;;;;;;;;;;;;5027214;28;1970;-59
2023/04/30 01:05:53;;;;;;;;;;;;;;;;;;5030056;28;4434;-58
2023/04/30 01:08:18;;;;;;;;;;;;;;;;;;5029277;28;6403;-61
2023/04/30 01:10:45;;;;;;;;;;;;;;;;;;5029590;28;4553;-60
2023/04/30 01:13:10;;;;;;;;;;;;;;;;;;5028670;28;4631;-60
2023/04/30 01:15:35;;;;;;;;;;;;;;;;;;5029339;28;1891;-59
2023/04/30 01:18:17;;;;;;;;;;;;;;;;;;5029183;28;4911;-60
2023/04/30 01:20:43;;;;;;;;;;;;;;;;;;5019433;28;4982;-58
2023/04/30 01:23:22;;;;;;;;;;;;;;;;;;5029575;28;5382;-60
2023/04/30 01:25:51;;;;;;;;;;;;;;;;;;5028219;28;4502;-58
2023/04/30 01:28:18;;;;;;;;;;;;;;;;;;5030234;28;5088;-58
2023/04/30 01:30:46;;;;;;;;;;;;;;;;;;5029606;28;5038;-58
2023/04/30 01:33:11;;;;;;;;;;;;;;;;;;5028294;28;1482;-59
2023/04/30 01:35:43;;;;;;;;;;;;;;;;;;5029638;28;4663;-59
2023/04/30 01:38:20;;;;;;;;;;;;;;;;;;5028651;28;4526;-62
2023/04/30 01:40:57;;;;;;;;;;;;;;;;;;5054889;28;5113;-59
2023/04/30 01:43:22;;;;;;;;;;;;;;;;;;5027157;28;4704;-59
2023/04/30 01:45:50;;;;;;;;;;;;;;;;;;5049306;28;4425;-60
2023/04/30 01:48:25;;;;;;;;;;;;;;;;;;5050223;28;1108;-59
2023/04/30 01:51:01;;;;;;;;;;;;;;;;;;5047255;28;4693;-61
2023/04/30 01:53:37;;;;;;;;;;;;;;;;;;5046232;28;4961;-61
2023/04/30 01:56:03;;;;;;;;;;;;;;;;;;5047430;28;5019;-60
2023/04/30 01:58:28;;;;;;;;;;;;;;;;;;5046459;28;4461;-61
2023/04/30 02:00:54;;;;;;;;;;;;;;;;;;5041752;28;4584;-67
2023/04/30 02:03:19;;;;;;;;;;;;;;;;;;5026294;28;1942;-61
2023/04/30 02:05:44;;;;;;;;;;;;;;;;;;5029118;28;4857;-61
2023/04/30 02:08:10;;;;;;;;;;;;;;;;;;5029417;28;4414;-61
2023/04/30 02:10:35;;;;;;;;;;;;;;;;;;5026328;28;6590;-63
2023/04/30 02:13:00;;;;;;;;;;;;;;;;;;5047906;28;5002;-61
2023/04/30 02:15:26;;;;;;;;;;;;;;;;;;5050010;28;1175;-60
2023/04/30 02:17:51;;;;;;;;;;;;;;;;;;5031201;28;4396;-61
2023/04/30 02:20:17;;;;;;;;;;;;;;;;;;5028467;28;4677;-61
2023/04/30 02:22:42;;;;;;;;;;;;;;;;;;5029112;28;4980;-59
2023/04/30 02:25:08;;;;;;;;;;;;;;;;;;5028842;28;4510;-59
2023/04/30 02:27:33;;;;;;;;;;;;;;;;;;5029136;28;1172;-59
2023/04/30 02:29:58;;;;;;;;;;;;;;;;;;5017866;28;4472;-60
2023/04/30 02:32:24;;;;;;;;;;;;;;;;;;5026094;28;4720;-60
2023/04/30 02:34:49;;;;;;;;;;;;;;;;;;5026503;28;4665;-60
2023/04/30 02:37:14;;;;;;;;;;;;;;;;;;5015089;28;4488;-59
2023/04/30 02:39:40;;;;;;;;;;;;;;;;;;5039003;28;4516;-61
2023/04/30 02:42:06;;;;;;;;;;;;;;;;;;5048616;28;1094;-59
2023/04/30 02:44:31;;;;;;;;;;;;;;;;;;5048502;28;4606;-59
2023/04/30 02:46:56;;;;;;;;;;;;;;;;;;5037505;28;4561;-60
2023/04/30 02:49:22;;;;;;;;;;;;;;;;;;5026721;28;4702;-61
2023/04/30 02:51:47;;;;;;;;;;;;;;;;;;5027606;28;4481;-60
2023/04/30 02:54:12;;;;;;;;;;;;;;;;;;5029349;28;1089;-62
2023/04/30 02:56:38;;;;;;;;;;;;;;;;;;5027765;28;5002;-60
2023/04/30 02:59:03;;;;;;;;;;;;;;;;;;5028101;28;4450;-58
2023/04/30 03:01:28;;;;;;;;;;;;;;;;;;5026637;28;4948;-58
2023/04/30 03:03:54;;;;;;;;;;;;;;;;;;5027900;28;4604;-57
2023/04/30 03:06:19;;;;;;;;;;;;;;;;;;5027894;28;1457;-61
2023/04/30 03:08:45;;;;;;;;;;;;;;;;;;5038252;28;6427;-59
2023/04/30 03:11:10;;;;;;;;;;;;;;;;;;5021809;28;5304;-58
2023/04/30 03:13:35;;;;;;;;;;;;;;;;;;5029823;28;4549;-58
2023/04/30 03:16:01;;;;;;;;;;;;;;;;;;5028162;28;4439;-64
2023/04/30 03:18:27;;;;;;;;;;;;;;;;;;5028547;28;1171;-58
2023/04/30 03:20:52;;;;;;;;;;;;;;;;;;5027729;28;5072;-58
2023/04/30 03:23:17;;;;;;;;;;;;;;;;;;5028031;28;4591;-64
2023/04/30 03:25:43;;;;;;;;;;;;;;;;;;5027929;28;4513;-62
2023/04/30 03:28:08;;;;;;;;;;;;;;;;;;5027466;28;4492;-64
2023/04/30 03:30:33;;;;;;;;;;;;;;;;;;5027623;28;1785;-62
2023/04/30 03:32:58;;;;;;;;;;;;;;;;;;5027695;28;4847;-62
2023/04/30 03:35:24;;;;;;;;;;;;;;;;;;5028111;28;4623;-59
2023/04/30 03:37:49;;;;;;;;;;;;;;;;;;5026288;28;5431;-59
2023/04/30 03:40:14;;;;;;;;;;;;;;;;;;5027053;28;4528;-61
2023/04/30 03:42:39;;;;;;;;;;;;;;;;;;5027847;28;4652;-59
2023/04/30 03:45:05;;;;;;;;;;;;;;;;;;5009735;28;1946;-62
2023/04/30 03:47:30;;;;;;;;;;;;;;;;;;5023028;28;4481;-60
2023/04/30 03:49:56;;;;;;;;;;;;;;;;;;5018698;28;4563;-68
2023/04/30 03:52:21;;;;;;;;;;;;;;;;;;5028150;28;4539;-61
2023/04/30 03:54:46;;;;;;;;;;;;;;;;;;5027613;28;4621;-60
2023/04/30 03:57:12;;;;;;;;;;;;;;;;;;5028292;28;1090;-60
2023/04/30 03:59:38;;;;;;;;;;;;;;;;;;5025697;28;5175;-60
2023/04/30 04:02:03;;;;;;;;;;;;;;;;;;5026007;28;4460;-59
2023/04/30 04:04:28;;;;;;;;;;;;;;;;;;5030862;28;5116;-64
2023/04/30 04:06:54;;;;;;;;;;;;;;;;;;5027436;28;4559;-61
2023/04/30 04:09:19;;;;;;;;;;;;;;;;;;5024741;28;6142;-62
2023/04/30 04:11:44;;;;;;;;;;;;;;;;;;5031555;28;4537;-62
2023/04/30 04:14:09;;;;;;;;;;;;;;;;;;5033621;28;4978;-60
2023/04/30 04:16:35;;;;;;;;;;;;;;;;;;5030926;28;4470;-60
2023/04/30 04:19:01;;;;;;;;;;;;;;;;;;5018586;28;4846;-59
2023/04/30 04:21:27;;;;;;;;;;;;;;;;;;5031916;28;1093;-58
2023/04/30 04:23:53;;;;;;;;;;;;;;;;;;5031433;28;5027;-60
2023/04/30 04:26:20;;;;;;;;;;;;;;;;;;5030951;28;5164;-60
2023/04/30 04:28:46;;;;;;;;;;;;;;;;;;5030480;28;4512;-59
2023/04/30 04:31:12;;;;;;;;;;;;;;;;;;5031156;28;4496;-59
2023/04/30 04:33:37;;;;;;;;;;;;;;;;;;5031421;28;1440;-59
2023/04/30 04:36:02;;;;;;;;;;;;;;;;;;5031080;28;4581;-62
2023/04/30 04:38:28;;;;;;;;;;;;;;;;;;5029372;28;4530;-60
2023/04/30 04:40:53;;;;;;;;;;;;;;;;;;5032318;28;5018;-62
2023/04/30 04:43:19;;;;;;;;;;;;;;;;;;5030408;28;4487;-59
2023/04/30 04:45:44;;;;;;;;;;;;;;;;;;5031181;28;4630;-60
2023/04/30 04:48:09;;;;;;;;;;;;;;;;;;5030457;28;1816;-60
2023/04/30 04:50:35;;;;;;;;;;;;;;;;;;5030746;28;4801;-60
2023/04/30 04:53:00;;;;;;;;;;;;;;;;;;5031054;28;4636;-62
2023/04/30 04:55:25;;;;;;;;;;;;;;;;;;5015114;28;4661;-63
2023/04/30 04:57:51;;;;;;;;;;;;;;;;;;5026266;28;4656;-60
2023/04/30 05:00:17;;;;;;;;;;;;;;;;;;5031388;28;1222;-59
2023/04/30 05:02:42;;;;;;;;;;;;;;;;;;5024166;28;4525;-60
2023/04/30 05:05:08;;;;;;;;;;;;;;;;;;5030633;28;4653;-60
2023/04/30 05:07:34;;;;;;;;;;;;;;;;;;5030523;28;4642;-60
2023/04/30 05:09:59;;;;;;;;;;;;;;;;;;5026691;28;6594;-59
2023/04/30 05:12:24;;;;;;;;;;;;;;;;;;5030883;28;1194;-61
2023/04/30 05:14:50;;;;;;;;;;;;;;;;;;5029579;28;4475;-61
2023/04/30 05:17:15;;;;;;;;;;;;;;;;;;5029861;28;4482;-62
2023/04/30 05:19:40;;;;;;;;;;;;;;;;;;5029795;28;4524;-60
2023/04/30 05:22:06;;;;;;;;;;;;;;;;;;5028825;28;4514;-61
2023/04/30 05:24:31;;;;;;;;;;;;;;;;;;5030002;28;1976;-61
2023/04/30 05:26:56;;;;;;;;;;;;;;;;;;5030009;28;4460;-59
2023/04/30 05:29:22;;;;;;;;;;;;;;;;;;5026576;28;4708;-60
2023/04/30 05:31:47;;;;;;;;;;;;;;;;;;5024777;28;4493;-58
2023/04/30 05:34:12;;;;;;;;;;;;;;;;;;5029654;28;4724;-59
2023/04/30 05:36:37;;;;;;;;;;;;;;;;;;5030536;28;1152;-59
2023/04/30 05:39:03;;;;;;;;;;;;;;;;;;5028400;28;4622;-60
2023/04/30 05:41:28;;;;;;;;;;;;;;;;;;5026025;28;4749;-59
2023/04/30 05:43:54;;;;;;;;;;;;;;;;;;5029435;28;4546;-61
2023/04/30 05:46:19;;;;;;;;;;;;;;;;;;5028124;28;4465;-61
2023/04/30 05:48:45;;;;;;;;;;;;;;;;;;5029636;28;4492;-59
2023/04/30 05:51:10;;;;;;;;;;;;;;;;;;5031842;28;1793;-58
2023/04/30 05:53:35;;;;;;;;;;;;;;;;;;5012122;28;4661;-59
2023/04/30 05:56:01;;;;;;;;;;;;;;;;;;5028107;28;4492;-61
2023/04/30 05:58:26;;;;;;;;;;;;;;;;;;5026254;28;4695;-58
2023/04/30 06:00:51;;;;;;;;;;;;;;;;;;5029088;28;4810;-59
2023/04/30 06:03:19;;;;;;;;;;;;;;;;;;5024772;28;1969;-61
2023/04/30 06:05:47;;;;;;;;;;;;;;;;;;5026315;28;4558;-58
2023/04/30 06:08:13;;;;;;;;;;;;;;;;;;5029124;28;4623;-59
2023/04/30 06:10:38;;;;;;;;;;;;;;;;;;5023453;28;6722;-58
2023/04/30 06:13:03;;;;;;;;;;;;;;;;;;5029199;28;4871;-59
2023/04/30 06:15:29;;;;;;;;;;;;;;;;;;5029956;28;1093;-59
2023/04/30 06:17:54;;;;;;;;;;;;;;;;;;5029541;28;5138;-59
2023/04/30 06:20:19;;;;;;;;;;;;;;;;;;5027158;28;5032;-61
2023/04/30 06:22:45;;;;;;;;;;;;;;;;;;5028862;28;4460;-61
2023/04/30 06:25:10;;;;;;;;;;;;;;;;;;5028576;28;4697;-59
2023/04/30 06:27:35;;;;;;;;;;;;;;;;;;5028505;28;1097;-60
2023/04/30 06:30:00;;;;;;;;;;;;;;;;;;5028721;28;4805;-61
2023/04/30 06:32:26;;;;;;;;;;;;;;;;;;5018714;28;4690;-59
2023/04/30 06:34:51;;;;;;;;;;;;;;;;;;5028567;28;4584;-58
2023/04/30 06:37:17;;;;;;;;;;;;;;;;;;5027427;28;4949;-59
2023/04/30 06:39:42;;;;;;;;;;;;;;;;;;5028449;28;4512;-63
2023/04/30 06:42:08;;;;;;;;;;;;;;;;;;5029031;28;1849;-61
2023/04/30 06:44:33;;;;;;;;;;;;;;;;;;5028400;28;4635;-63
2023/04/30 06:46:58;;;;;;;;;;;;;;;;;;5026353;28;4689;-64
2023/04/30 06:49:23;;;;;;;;;;;;;;;;;;5028707;28;4472;-60
2023/04/30 06:51:49;;;;;;;;;;;;;;;;;;5028701;28;4647;-60
2023/04/30 06:54:15;;;;;;;;;;;;;;;;;;5015688;28;1892;-61
2023/04/30 06:56:40;;;;;;;;;;;;;;;;;;5028518;28;4419;-61
2023/04/30 06:59:05;;;;;;;;;;;;;;;;;;5028428;28;4631;-63
2023/04/30 07:01:30;;;;;;;;;;;;;;;;;;5024090;28;4981;-60
2023/04/30 07:03:56;;;;;;;;;;;;;;;;;;5028143;28;4494;-60
2023/04/30 07:06:21;;;;;;;;;;;;;;;;;;5019459;28;1918;-60
2023/04/30 07:08:47;;;;;;;;;;;;;;;;;;5008800;28;6426;-62
2023/04/30 07:11:12;;;;;;;;;;;;;;;;;;5027428;28;4956;-62
2023/04/30 07:13:38;;;;;;;;;;;;;;;;;;5025500;28;4506;-62
2023/04/30 07:16:03;;;;;;;;;;;;;;;;;;5027423;28;5093;-63
2023/04/30 07:18:29;;;;;;;;;;;;;;;;;;5041929;28;1998;-63
2023/04/30 07:20:54;;;;;;;;;;;;;;;;;;5035486;28;4613;-63
2023/04/30 07:23:20;;;;;;;;;;;;;;;;;;5033713;28;4835;-65
2023/04/30 07:25:45;;;;;;;;;;;;;;;;;;5021080;28;4491;-63
2023/04/30 07:28:10;;;;;;;;;;;;;;;;;;5024896;28;4923;-64
2023/04/30 07:30:36;;;;;;;;;;;;;;;;;;5029549;28;1739;-63
2023/04/30 07:33:01;;;;;;;;;;;;;;;;;;5027761;28;4778;-63
2023/04/30 07:35:26;;;;;;;;;;;;;;;;;;5021851;28;4793;-62
2023/04/30 07:37:52;;;;;;;;;;;;;;;;;;5040877;28;4550;-63
2023/04/30 07:40:17;;;;;;;;;;;;;;;;;;5044159;28;4747;-62
2023/04/30 07:42:43;;;;;;;;;;;;;;;;;;5027580;28;5006;-64
2023/04/30 07:45:09;;;;;;;;;;;;;;;;;;5026986;28;2197;-64
2023/04/30 07:47:34;;;;;;;;;;;;;;;;;;5023936;28;4690;-63
2023/04/30 07:49:59;;;;;;;;;;;;;;;;;;5026872;28;5062;-64
2023/04/30 07:52:24;;;;;;;;;;;;;;;;;;5036624;28;5135;-61
2023/04/30 07:54:50;;;;;;;;;;;;;;;;;;5044745;28;4520;-59
2023/04/30 07:57:15;;;;;;;;;;;;;;;;;;5022422;28;3209;-60
2023/04/30 07:59:40;;;;;;;;;;;;;;;;;;5029804;28;4677;-60
2023/04/30 08:02:07;;;;;;;;;;;;;;;;;;5034248;28;4966;-59
2023/04/30 08:04:32;;;;;;;;;;;;;;;;;;5028901;28;4705;-60
2023/04/30 08:06:57;;;;;;;;;;;;;;;;;;5030875;28;4493;-62
2023/04/30 08:09:22;;;;;;;;;;;;;;;;;;5025987;28;6410;-58
2023/04/30 08:11:48;;;;;;;;;;;;;;;;;;5029180;28;4422;-59
2023/04/30 08:14:13;;;;;;;;;;;;;;;;;;5038500;28;4529;-60
2023/04/30 08:16:38;;;;;;;;;;;;;;;;;;5042371;28;5163;-60
2023/04/30 08:19:04;;;;;;;;;;;;;;;;;;5030788;28;4981;-61
2023/04/30 08:21:29;;;;;;;;;;;;;;;;;;5031306;28;978;-66
2023/04/30 08:23:54;;;;;;;;;;;;;;;;;;5024596;28;4443;-63
2023/04/30 08:26:20;;;;;;;;;;;;;;;;;;5030068;28;4728;-60
2023/04/30 08:28:45;;;;;;;;;;;;;;;;;;5026122;28;4539;-62
2023/04/30 08:31:11;;;;;;;;;;;;;;;;;;5030445;28;5149;-60
2023/04/30 08:33:36;;;;;;;;;;;;;;;;;;5024789;28;1449;-60
2023/04/30 08:36:02;;;;;;;;;;;;;;;;;;5029765;28;4442;-59
2023/04/30 08:38:27;;;;;;;;;;;;;;;;;;5028909;28;4768;-58
2023/04/30 08:40:55;;;;;;;;;;;;;;;;;;5029147;28;5139;-60
2023/04/30 08:43:21;;;;;;;;;;;;;;;;;;5029401;28;5024;-58
2023/04/30 08:45:47;;;;;;;;;;;;;;;;;;5025870;28;5184;-62
2023/04/30 08:48:14;;;;;;;;;;;;;;;;;;5014955;28;3779;-58
2023/04/30 08:50:39;;;;;;;;;;;;;;;;;;5025723;28;4526;-59
2023/04/30 08:53:05;;;;;;;;;;;;;;;;;;5024185;28;4700;-64
2023/04/30 08:55:30;;;;;;;;;;;;;;;;;;5027819;28;4526;-66
2023/04/30 08:57:55;;;;;;;;;;;;;;;;;;5028862;28;4480;-63
2023/04/30 09:00:21;;;;;;;;;;;;;;;;;;5028478;28;1163;-66
2023/04/30 09:02:47;;;;;;;;;;;;;;;;;;5026869;28;4449;-62
2023/04/30 09:05:13;;;;;;;;;;;;;;;;;;5027520;28;4672;-61
2023/04/30 09:07:42;;;;;;;;;;;;;;;;;;5027997;28;4631;-63
2023/04/30 09:10:15;;;;;;;;;;;;;;;;;;5024329;28;6374;-61
2023/04/30 09:12:44;;;;;;;;;;;;;;;;;;5026788;28;5394;-62
2023/04/30 09:15:10;;;;;;;;;;;;;;;;;;5029480;28;1782;-63
2023/04/30 09:17:35;;;;;;;;;;;;;;;;;;5026508;28;4835;-65
2023/04/30 09:20:10;;;;;;;;;;;;;;;;;;5027417;28;4622;-69
2023/04/30 09:22:35;;;;;;;;;;;;;;;;;;5027948;28;4472;-64
2023/04/30 09:25:01;;;;;;;;;;;;;;;;;;5022960;28;4933;-64
2023/04/30 09:27:26;;;;;;;;;;;;;;;;;;5024200;28;1656;-67
2023/04/30 09:29:51;;;;;;;;;;;;;;;;;;5028980;28;5009;-65
2023/04/30 09:32:17;;;;;;;;;;;;;;;;;;5026931;28;4505;-66
2023/04/30 09:34:42;;;;;;;;;;;;;;;;;;5023025;28;4476;-65
2023/04/30 09:37:08;;;;;;;;;;;;;;;;;;5026266;28;4662;-67
2023/04/30 09:39:33;;;;;;;;;;;;;;;;;;5017929;28;2612;-65
2023/04/30 09:42:08;;;;;;;;;;;;;;;;;;5025356;28;4572;-66
2023/04/30 09:44:37;;;;;;;;;;;;;;;;;;5026558;28;4872;-64
2023/04/30 09:47:03;;;;;;;;;;;;;;;;;;5028208;28;4450;-63
2023/04/30 09:49:28;;;;;;;;;;;;;;;;;;5026726;28;4529;-64
2023/04/30 09:51:55;;;;;;;;;;;;;;;;;;5027980;28;4467;-64
2023/04/30 09:54:22;;;;;;;;;;;;;;;;;;5027019;28;1860;-64
2023/04/30 09:56:47;;;;;;;;;;;;;;;;;;5024903;28;4446;-65
2023/04/30 09:59:13;;;;;;;;;;;;;;;;;;5023681;28;4439;-64
2023/04/30 10:01:38;;;;;;;;;;;;;;;;;;5021432;28;5104;-65
2023/04/30 10:04:03;;;;;;;;;;;;;;;;;;5025271;28;4489;-68
2023/04/30 10:06:34;;;;;;;;;;;;;;;;;;5027031;28;1157;-65
2023/04/30 10:09:00;;;;;;;;;;;;;;;;;;5020719;28;6309;-65
2023/04/30 10:11:27;;;;;;;;;;;;;;;;;;5023186;28;4513;-63
2023/04/30 10:14:09;;;;;;;;;;;;;;;;;;5026738;28;4850;-64
2023/04/30 10:16:39;;;;;;;;;;;;;;;;;;5024276;28;5107;-65
2023/04/30 10:19:06;;;;;;;;;;;;;;;;;;5025524;28;4716;-68
2023/04/30 10:21:31;;;;;;;;;;;;;;;;;;5028430;28;1109;-65
2023/04/30 10:23:57;;;;;;;;;;;;;;;;;;5027540;28;4427;-63
2023/04/30 10:26:23;;;;;;;;;;;;;;;;;;5018089;28;4466;-60
2023/04/30 10:28:49;;;;;;;;;;;;;;;;;;5023807;28;5176;-63
2023/04/30 10:31:14;;;;;;;;;;;;;;;;;;5024274;28;4480;-66
2023/04/30 10:33:49;;;;;;;;;;;;;;;;;;5023420;28;5028;-63
2023/04/30 10:36:17;;;;;;;;;;;;;;;;;;5027218;28;1373;-63
2023/04/30 10:38:42;;;;;;;;;;;;;;;;;;5008661;28;4867;-64
2023/04/30 10:41:08;;;;;;;;;;;;;;;;;;5022220;28;5020;-61
2023/04/30 10:43:34;;;;;;;;;;;;;;;;;;5027237;28;4628;-63
2023/04/30 10:46:00;;;;;;;;;;;;;;;;;;5024267;28;4834;-63
2023/04/30 10:48:26;;;;;;;;;;;;;;;;;;5025400;28;1213;-61
2023/04/30 10:51:00;;;;;;;;;;;;;;;;;;5027324;28;5090;-64
2023/04/30 10:53:27;;;;;;;;;;;;;;;;;;5038756;28;5150;-66
2023/04/30 10:55:53;;;;;;;;;;;;;;;;;;5036965;28;4669;-59
2023/04/30 10:58:24;;;;;;;;;;;;;;;;;;5044117;28;4524;-61
2023/04/30 11:00:50;;;;;;;;;;;;;;;;;;5045889;28;5119;-60
2023/04/30 11:03:15;;;;;;;;;;;;;;;;;;5042361;28;1930;-61
2023/04/30 11:05:41;;;;;;;;;;;;;;;;;;5044128;28;5602;-60
2023/04/30 11:08:06;;;;;;;;;;;;;;;;;;5045279;28;4559;-61
2023/04/30 11:10:32;;;;;;;;;;;;;;;;;;5045608;28;6668;-61
2023/04/30 11:12:57;;;;;;;;;;;;;;;;;;5047102;28;5177;-60
2023/04/30 11:15:26;;;;;;;;;;;;;;;;;;5048049;28;1168;-61
2023/04/30 11:17:55;;;;;;;;;;;;;;;;;;5047931;28;5088;-61
2023/04/30 11:20:22;;;;;;;;;;;;;;;;;;5042099;28;4913;-64
2023/04/30 11:22:47;;;;;;;;;;;;;;;;;;5042546;28;4497;-60
2023/04/30 11:25:17;;;;;;;;;;;;;;;;;;5047383;28;5080;-60
2023/04/30 11:27:43;;;;;;;;;;;;;;;;;;5044529;28;5028;-60
2023/04/30 11:30:15;;;;;;;;;;;;;;;;;;5046749;28;1802;-61
2023/04/30 11:32:43;;;;;;;;;;;;;;;;;;5033839;28;4548;-65
2023/04/30 11:35:08;;;;;;;;;;;;;;;;;;5034842;28;4533;-62
2023/04/30 11:37:37;;;;;;;;;;;;;;;;;;5043483;28;4554;-63
2023/04/30 11:40:07;;;;;;;;;;;;;;;;;;5045806;28;4513;-66
2023/04/30 11:42:35;;;;;;;;;;;;;;;;;;5043832;28;2850;-60
2023/04/30 11:45:07;;;;;;;;;;;;;;;;;;5038145;28;4697;-62
2023/04/30 11:47:39;;;;;;;;;;;;;;;;;;5042721;28;4434;-61
2023/04/30 11:50:04;;;;;;;;;;;;;;;;;;5039117;28;4543;-61
2023/04/30 11:52:30;;;;;;;;;;;;;;;;;;5047220;28;5049;-63
2023/04/30 11:54:56;;;;;;;;;;;;;;;;;;5043184;28;5781;-67
2023/04/30 11:57:21;;;;;;;;;;;;;;;;;;5038908;28;1869;-65
2023/04/30 11:59:48;;;;;;;;;;;;;;;;;;5038690;28;5062;-64
2023/04/30 12:02:14;;;;;;;;;;;;;;;;;;5034993;28;4500;-59
2023/04/30 12:04:41;;;;;;;;;;;;;;;;;;5043539;28;5025;-59
2023/04/30 12:07:07;;;;;;;;;;;;;;;;;;5033169;28;4711;-58
2023/04/30 12:09:32;;;;;;;;;;;;;;;;;;5040290;28;6351;-59
2023/04/30 12:11:58;;;;;;;;;;;;;;;;;;5040171;28;4658;-60
2023/04/30 12:14:23;;;;;;;;;;;;;;;;;;5041637;28;4460;-59
2023/04/30 12:16:49;;;;;;;;;;;;;;;;;;5044918;28;4541;-59
2023/04/30 12:19:15;;;;;;;;;;;;;;;;;;5046263;28;5064;-60
2023/04/30 12:21:41;;;;;;;;;;;;;;;;;;5045934;28;4554;-60
2023/04/30 12:24:07;;;;;;;;;;;;;;;;;;5048466;28;1981;-60
2023/04/30 12:26:38;;;;;;;;;;;;;;;;;;5042568;28;4478;-59
2023/04/30 12:29:07;;;;;;;;;;;;;;;;;;5038182;28;4604;-60
2023/04/30 12:31:32;;;;;;;;;;;;;;;;;;5045453;28;4510;-59
2023/04/30 12:34:02;;;;;;;;;;;;;;;;;;5050328;28;4488;-59
2023/04/30 12:36:31;;;;;;;;;;;;;;;;;;5049694;28;1163;-59
2023/04/30 12:39:07;;;;;;;;;;;;;;;;;;5050723;28;4917;-59
2023/04/30 12:41:37;;;;;;;;;;;;;;;;;;5044461;28;4675;-59
2023/04/30 12:44:18;;;;;;;;;;;;;;;;;;5045122;28;5040;-59
2023/04/30 12:46:45;;;;;;;;;;;;;;;;;;5040991;28;5066;-60
2023/04/30 12:49:10;;;;;;;;;;;;;;;;;;5047501;28;4534;-59
2023/04/30 12:51:36;;;;;;;;;;;;;;;;;;5046783;28;1791;-60
2023/04/30 12:54:01;;;;;;;;;;;;;;;;;;5049195;28;4659;-60
2023/04/30 12:56:26;;;;;;;;;;;;;;;;;;5047156;28;4653;-60
2023/04/30 12:58:51;;;;;;;;;;;;;;;;;;5045531;28;4670;-60
2023/04/30 13:01:18;;;;;;;;;;;;;;;;;;5046771;28;5298;-59
2023/04/30 13:03:43;;;;;;;;;;;;;;;;;;5046374;28;4533;-59
2023/04/30 13:06:09;;;;;;;;;;;;;;;;;;5050599;28;1151;-59
2023/04/30 13:08:34;;;;;;;;;;;;;;;;;;5047671;28;6398;-59
2023/04/30 13:10:59;;;;;;;;;;;;;;;;;;5044965;28;4657;-59
2023/04/30 13:13:25;;;;;;;;;;;;;;;;;;5049717;28;5184;-60
2023/04/30 13:15:50;;;;;;;;;;;;;;;;;;5045524;28;4723;-59
2023/04/30 13:18:15;;;;;;;;;;;;;;;;;;5050783;28;1215;-60
2023/04/30 13:20:42;;;;;;;;;;;;;;;;;;5049550;28;4673;-59
2023/04/30 13:23:08;;;;;;;;;;;;;;;;;;5050264;28;4433;-59
2023/04/30 13:25:33;;;;;;;;;;;;;;;;;;5048798;28;5088;-59
2023/04/30 13:27:58;;;;;;;;;;;;;;;;;;5047022;28;4458;-60
2023/04/30 13:30:24;;;;;;;;;;;;;;;;;;5049512;28;1244;-60
2023/04/30 13:32:50;;;;;;;;;;;;;;;;;;5046618;28;4515;-60
2023/04/30 13:35:15;;;;;;;;;;;;;;;;;;5048225;28;4668;-60
2023/04/30 13:37:41;;;;;;;;;;;;;;;;;;5049693;28;4495;-59
2023/04/30 13:40:07;;;;;;;;;;;;;;;;;;5049134;28;5029;-59
2023/04/30 13:42:32;;;;;;;;;;;;;;;;;;5043772;28;1093;-59
2023/04/30 13:44:57;;;;;;;;;;;;;;;;;;5049566;28;4612;-60
2023/04/30 13:47:23;;;;;;;;;;;;;;;;;;5049275;28;4450;-60
2023/04/30 13:49:48;;;;;;;;;;;;;;;;;;5049431;28;4652;-60
2023/04/30 13:52:13;;;;;;;;;;;;;;;;;;5058776;28;4476;-60
2023/04/30 13:54:39;;;;;;;;;;;;;;;;;;5049886;28;1159;-59
2023/04/30 13:57:05;;;;;;;;;;;;;;;;;;5049284;28;5071;-61
2023/04/30 13:59:30;;;;;;;;;;;;;;;;;;5064007;28;4657;-60
2023/04/30 14:01:56;;;;;;;;;;;;;;;;;;5046601;28;4824;-60
2023/04/30 14:04:21;;;;;;;;;;;;;;;;;;5048455;28;4677;-60
2023/04/30 14:06:47;;;;;;;;;;;;;;;;;;5048861;28;5021;-61
2023/04/30 14:09:13;;;;;;;;;;;;;;;;;;5045960;28;6379;-63
2023/04/30 14:11:38;;;;;;;;;;;;;;;;;;5047989;28;4713;-63
2023/04/30 14:14:03;;;;;;;;;;;;;;;;;;5046561;28;5040;-61
2023/04/30 14:16:29;;;;;;;;;;;;;;;;;;5048018;28;5020;-61
2023/04/30 14:18:54;;;;;;;;;;;;;;;;;;5061524;28;4477;-61
2023/04/30 14:21:20;;;;;;;;;;;;;;;;;;5048083;28;1223;-60
2023/04/30 14:23:45;;;;;;;;;;;;;;;;;;5043631;28;4498;-59
2023/04/30 14:26:11;;;;;;;;;;;;;;;;;;5047015;28;4696;-62
2023/04/30 14:28:36;;;;;;;;;;;;;;;;;;5047906;28;5222;-61
2023/04/30 14:31:02;;;;;;;;;;;;;;;;;;5045996;28;4971;-64
2023/04/30 14:33:28;;;;;;;;;;;;;;;;;;5047713;28;1765;-59
2023/04/30 14:35:53;;;;;;;;;;;;;;;;;;5043093;28;4452;-59
2023/04/30 14:38:19;;;;;;;;;;;;;;;;;;5038267;28;4540;-60
2023/04/30 14:40:45;;;;;;;;;;;;;;;;;;5034121;28;4601;-61
2023/04/30 14:43:10;;;;;;;;;;;;;;;;;;5041606;28;4592;-58
2023/04/30 14:45:35;;;;;;;;;;;;;;;;;;5049214;28;1918;-59
2023/04/30 14:48:01;;;;;;;;;;;;;;;;;;5028161;28;4655;-59
2023/04/30 14:50:26;;;;;;;;;;;;;;;;;;5047954;28;4660;-58
2023/04/30 14:52:51;;;;;;;;;;;;;;;;;;5048471;28;4512;-59
2023/04/30 14:55:16;;;;;;;;;;;;;;;;;;5048927;28;4458;-59
2023/04/30 14:57:42;;;;;;;;;;;;;;;;;;5048595;28;5426;-58
2023/04/30 15:00:07;;;;;;;;;;;;;;;;;;5048556;28;1478;-58
2023/04/30 15:02:32;;;;;;;;;;;;;;;;;;5042731;28;4913;-58
2023/04/30 15:04:57;;;;;;;;;;;;;;;;;;5047664;28;4490;-58
2023/04/30 15:07:23;;;;;;;;;;;;;;;;;;5048416;28;4610;-57
2023/04/30 15:09:48;;;;;;;;;;;;;;;;;;5047277;28;6268;-58
2023/04/30 15:12:13;;;;;;;;;;;;;;;;;;5048333;28;1137;-57
2023/04/30 15:14:40;;;;;;;;;;;;;;;;;;5048084;28;4644;-57
2023/04/30 15:17:05;;;;;;;;;;;;;;;;;;5048215;28;4764;-58
2023/04/30 15:19:30;;;;;;;;;;;;;;;;;;5035172;28;4644;-59
2023/04/30 15:21:56;;;;;;;;;;;;;;;;;;5045299;28;4657;-58
2023/04/30 15:24:21;;;;;;;;;;;;;;;;;;5048292;28;2005;-58
2023/04/30 15:26:46;;;;;;;;;;;;;;;;;;5047449;28;4645;-58
2023/04/30 15:29:11;;;;;;;;;;;;;;;;;;5048067;28;4490;-58
2023/04/30 15:31:37;;;;;;;;;;;;;;;;;;5048004;28;5037;-59
2023/04/30 15:34:02;;;;;;;;;;;;;;;;;;5047619;28;4588;-59
2023/04/30 15:36:27;;;;;;;;;;;;;;;;;;5048330;28;1296;-58
2023/04/30 15:38:53;;;;;;;;;;;;;;;;;;5046701;28;4909;-58
2023/04/30 15:41:18;;;;;;;;;;;;;;;;;;5047611;28;4900;-58
2023/04/30 15:43:43;;;;;;;;;;;;;;;;;;5047975;28;4661;-58
2023/04/30 15:46:09;;;;;;;;;;;;;;;;;;5047302;28;4641;-58
2023/04/30 15:48:34;;;;;;;;;;;;;;;;;;5048481;28;1163;-57
2023/04/30 15:51:00;;;;;;;;;;;;;;;;;;5047668;28;4465;-58
2023/04/30 15:53:25;;;;;;;;;;;;;;;;;;5047344;28;4582;-58
2023/04/30 15:55:50;;;;;;;;;;;;;;;;;;5062846;28;4763;-58
2023/04/30 15:58:16;;;;;;;;;;;;;;;;;;5047857;28;4494;-58
2023/04/30 16:00:41;;;;;;;;;;;;;;;;;;5051661;28;4495;-61
2023/04/30 16:03:06;;;;;;;;;;;;;;;;;;5049856;28;1476;-58
2023/04/30 16:05:33;;;;;;;;;;;;;;;;;;5051458;28;4507;-59
2023/04/30 16:07:59;;;;;;;;;;;;;;;;;;5051194;28;4595;-57
2023/04/30 16:10:24;;;;;;;;;;;;;;;;;;5042108;28;6616;-58
2023/04/30 16:12:49;;;;;;;;;;;;;;;;;;5035714;28;4522;-58
2023/04/30 16:15:15;;;;;;;;;;;;;;;;;;5051674;28;1085;-57
2023/04/30 16:17:40;;;;;;;;;;;;;;;;;;5050619;28;5080;-58
2023/04/30 16:20:06;;;;;;;;;;;;;;;;;;5051681;28;4451;-58
2023/04/30 16:22:31;;;;;;;;;;;;;;;;;;5050454;28;5391;-58
2023/04/30 16:24:56;;;;;;;;;;;;;;;;;;5048366;28;4551;-58
2023/04/30 16:27:21;;;;;;;;;;;;;;;;;;5051338;28;1251;-60
2023/04/30 16:29:47;;;;;;;;;;;;;;;;;;5051002;28;4434;-58
2023/04/30 16:32:12;;;;;;;;;;;;;;;;;;5051266;28;4548;-62
2023/04/30 16:34:37;;;;;;;;;;;;;;;;;;5050267;28;5019;-57
2023/04/30 16:37:02;;;;;;;;;;;;;;;;;;5051043;28;5022;-59
2023/04/30 16:39:28;;;;;;;;;;;;;;;;;;5051127;28;1136;-58
2023/04/30 16:41:53;;;;;;;;;;;;;;;;;;5050576;28;5043;-58
2023/04/30 16:44:18;;;;;;;;;;;;;;;;;;5046290;28;4650;-58
2023/04/30 16:46:43;;;;;;;;;;;;;;;;;;5050728;28;4441;-58
2023/04/30 16:49:09;;;;;;;;;;;;;;;;;;5050353;28;5128;-58
2023/04/30 16:51:34;;;;;;;;;;;;;;;;;;5050972;28;1171;-57
2023/04/30 16:53:59;;;;;;;;;;;;;;;;;;5050933;28;4948;-57